Laurel, New York
Current Conditions -  °F | °C
As of 10:53 PM on Saturday 22 Nov 2014 (Local Time) from KFOK Reporting Station
Broken Clouds Broken Clouds  
Wind Chill: 37°   Ceiling: 8500
Heat Index: 44°   Visibility: 10mi
Dew Point: 25°   Wind: 16mph
Humidity: 47%   Direction: 240°WSW
Pressure: 30.21"   Gusts: 25mph
Location:  40.98°N, 72.55°W
Report Text: KFOK 230353Z AUTO 24014G22KT 10SM SCT065 BKN085 07/M04 A3021 RMK AO2 PK WND 24027/0336 SLP229 T00671039 TSNO
Loading
Personal Weather Stations






























Interactive Weather Map New forecast layout! Learn more

10-Day Weather Forecast

Advertisements
Track Severe Weather on mobile